createdAt,value
2023-02-11T00:01:27.766Z,11.48
2023-02-11T00:03:55.196Z,10.73
2023-02-11T00:06:23.006Z,10.57
2023-02-11T00:08:49.856Z,11.18
2023-02-11T00:11:19.034Z,9.20
2023-02-11T00:13:46.865Z,13.73
2023-02-11T00:16:19.928Z,11.00
2023-02-11T00:18:47.607Z,10.95
2023-02-11T00:21:17.934Z,10.02
2023-02-11T00:23:46.217Z,10.52
2023-02-11T00:26:27.446Z,9.35
2023-02-11T00:28:54.457Z,12.40
2023-02-11T00:31:22.937Z,10.63
2023-02-11T00:33:50.376Z,9.63
2023-02-11T00:36:26.401Z,10.75
2023-02-11T00:38:54.438Z,9.85
2023-02-11T00:41:22.150Z,14.73
2023-02-11T00:43:49.105Z,13.63
2023-02-11T00:46:20.850Z,14.10
2023-02-11T00:48:48.185Z,9.95
2023-02-11T00:51:15.310Z,7.90
2023-02-11T00:53:42.185Z,11.02
2023-02-11T00:56:09.806Z,9.68
2023-02-11T00:58:36.845Z,8.23
2023-02-11T01:01:04.302Z,11.90
2023-02-11T01:03:31.491Z,9.20
2023-02-11T01:05:58.381Z,9.00
2023-02-11T01:08:25.533Z,8.93
2023-02-11T01:10:57.899Z,11.13
2023-02-11T01:13:25.358Z,12.77
2023-02-11T01:15:54.770Z,10.27
2023-02-11T01:18:21.858Z,12.30
2023-02-11T01:20:49.199Z,12.02
2023-02-11T01:23:16.668Z,10.80
2023-02-11T01:25:44.382Z,12.18
2023-02-11T01:28:19.188Z,9.18
2023-02-11T01:30:46.454Z,8.32
2023-02-11T01:33:13.529Z,10.70
2023-02-11T01:35:40.609Z,12.00
2023-02-11T01:38:14.020Z,9.18
2023-02-11T01:40:40.952Z,12.27
2023-02-11T01:43:10.649Z,10.35
2023-02-11T01:45:47.080Z,13.00
2023-02-11T01:48:19.864Z,10.32
2023-02-11T01:50:53.497Z,10.50
2023-02-11T01:53:39.971Z,11.05
2023-02-11T01:56:27.057Z,11.48
2023-02-11T01:59:02.870Z,10.65
2023-02-11T02:01:33.758Z,14.32
2023-02-11T02:04:05.536Z,12.07
2023-02-11T02:06:35.538Z,12.23
2023-02-11T02:09:11.418Z,9.95
2023-02-11T02:11:38.489Z,9.50
2023-02-11T02:14:05.452Z,9.48
2023-02-11T02:16:35.093Z,9.25
2023-02-11T02:19:19.963Z,7.18
2023-02-11T02:22:05.132Z,9.73
2023-02-11T02:24:51.777Z,8.73
2023-02-11T02:27:29.210Z,10.27
2023-02-11T02:30:40.546Z,11.07
2023-02-11T02:33:22.395Z,9.73
2023-02-11T02:36:23.397Z,8.15
2023-02-11T02:38:59.212Z,9.23
2023-02-11T02:41:32.608Z,8.45
2023-02-11T02:44:00.205Z,9.95
2023-02-11T02:46:30.247Z,9.02
2023-02-11T02:48:58.274Z,11.60
2023-02-11T02:51:40.225Z,9.55
2023-02-11T02:54:07.067Z,11.30
2023-02-11T02:57:08.426Z,12.40
2023-02-11T03:00:02.424Z,9.27
2023-02-11T03:02:44.130Z,10.77
2023-02-11T03:05:19.021Z,10.88
2023-02-11T03:07:55.408Z,9.63
2023-02-11T03:10:26.113Z,9.23
2023-02-11T03:12:54.787Z,8.90
2023-02-11T03:15:24.826Z,21.45
2023-02-11T03:17:54.900Z,12.43
2023-02-11T03:20:23.135Z,8.27
2023-02-11T03:22:56.060Z,9.10
2023-02-11T03:25:30.079Z,8.48
2023-02-11T03:28:14.859Z,8.02
2023-02-11T03:30:49.433Z,8.20
2023-02-11T03:33:51.757Z,9.15
2023-02-11T03:36:27.968Z,10.90
2023-02-11T03:38:58.780Z,11.35
2023-02-11T03:41:26.241Z,9.82
2023-02-11T03:43:58.341Z,10.23
2023-02-11T03:46:31.976Z,10.05
2023-02-11T03:49:04.261Z,9.27
2023-02-11T03:51:33.374Z,10.48
2023-02-11T03:54:04.638Z,9.48
2023-02-11T03:56:36.734Z,10.85
2023-02-11T03:59:03.639Z,10.27
2023-02-11T04:01:30.915Z,7.60
2023-02-11T04:03:57.803Z,10.50
2023-02-11T04:06:24.635Z,9.88
2023-02-11T04:08:51.500Z,10.20
2023-02-11T04:11:18.624Z,13.45
2023-02-11T04:13:45.427Z,9.93
2023-02-11T04:16:12.419Z,9.23
2023-02-11T04:18:39.257Z,9.98
2023-02-11T04:21:06.268Z,9.32
2023-02-11T04:23:33.208Z,9.73
2023-02-11T04:25:59.997Z,9.25
2023-02-11T04:28:29.525Z,10.25
2023-02-11T04:30:56.543Z,8.45
2023-02-11T04:33:23.493Z,8.75
2023-02-11T04:35:50.695Z,12.43
2023-02-11T04:38:17.827Z,14.40
2023-02-11T04:40:44.966Z,12.65
2023-02-11T04:43:11.904Z,9.65
2023-02-11T04:45:38.758Z,12.05
2023-02-11T04:48:05.743Z,58.05
2023-02-11T04:50:32.872Z,97.07
2023-02-11T04:52:59.644Z,70.00
2023-02-11T04:55:26.889Z,69.35
2023-02-11T04:57:53.860Z,45.78
2023-02-11T05:00:20.936Z,24.20
2023-02-11T05:02:47.748Z,29.40
2023-02-11T05:05:14.556Z,13.57
2023-02-11T05:07:41.310Z,32.50
2023-02-11T05:10:08.367Z,93.45
2023-02-11T05:12:35.154Z,141.98
2023-02-11T05:15:01.986Z,23.25
2023-02-11T05:17:28.864Z,21.65
2023-02-11T05:19:55.707Z,19.00
2023-02-11T05:22:22.578Z,29.23
2023-02-11T05:24:50.247Z,187.77
2023-02-11T05:27:17.112Z,90.50
2023-02-11T05:29:44.085Z,39.17
2023-02-11T05:32:10.964Z,102.13
2023-02-11T05:34:37.899Z,26.25
2023-02-11T05:37:04.856Z,13.45
2023-02-11T05:39:31.696Z,11.32
2023-02-11T05:41:58.514Z,10.35
2023-02-11T05:44:25.315Z,12.45
2023-02-11T05:46:52.151Z,13.50
2023-02-11T05:49:19.081Z,14.20
2023-02-11T05:51:46.037Z,14.35
2023-02-11T05:54:13.176Z,10.45
2023-02-11T05:56:40.041Z,12.02
2023-02-11T05:59:06.902Z,17.23
2023-02-11T06:01:33.854Z,15.35
2023-02-11T06:04:00.868Z,36.03
2023-02-11T06:06:27.961Z,33.85
2023-02-11T06:08:54.935Z,15.73
2023-02-11T06:11:21.799Z,16.17
2023-02-11T06:13:48.648Z,15.77
2023-02-11T06:16:15.695Z,55.40
2023-02-11T06:18:42.809Z,61.20
2023-02-11T06:21:11.321Z,44.28
2023-02-11T06:23:38.647Z,26.90
2023-02-11T06:26:15.815Z,24.10
2023-02-11T06:28:42.740Z,24.25
2023-02-11T06:31:10.427Z,39.20
2023-02-11T06:33:38.578Z,28.60
2023-02-11T06:36:12.246Z,14.60
2023-02-11T06:38:39.086Z,16.00
2023-02-11T06:41:05.903Z,12.35
2023-02-11T06:43:32.791Z,15.38
2023-02-11T06:45:59.601Z,19.70
2023-02-11T06:48:26.544Z,14.98
2023-02-11T06:50:53.505Z,20.40
2023-02-11T06:53:20.321Z,17.05
2023-02-11T06:55:47.207Z,14.45
2023-02-11T06:58:14.425Z,14.45
2023-02-11T07:00:41.316Z,18.38
2023-02-11T07:03:08.554Z,14.73
2023-02-11T07:05:37.226Z,18.33
2023-02-11T07:08:04.425Z,16.85
2023-02-11T07:10:31.307Z,28.30
2023-02-11T07:12:58.907Z,20.02
2023-02-11T07:15:26.014Z,13.63
2023-02-11T07:17:52.988Z,28.92
2023-02-11T07:20:20.018Z,16.83
2023-02-11T07:22:46.862Z,38.75
2023-02-11T07:25:13.737Z,40.85
2023-02-11T07:27:40.604Z,33.92
2023-02-11T07:30:08.091Z,22.95
2023-02-11T07:32:34.944Z,33.42
2023-02-11T07:35:01.844Z,49.85
2023-02-11T07:37:28.715Z,26.40
2023-02-11T07:39:55.624Z,43.45
2023-02-11T07:42:22.522Z,38.65
2023-02-11T07:44:50.659Z,20.63
2023-02-11T07:47:17.875Z,24.42
2023-02-11T07:49:45.949Z,17.23
2023-02-11T07:52:12.778Z,29.08
2023-02-11T07:54:39.613Z,35.20
2023-02-11T07:57:06.781Z,24.40
2023-02-11T07:59:33.703Z,14.20
2023-02-11T08:02:00.735Z,14.32
2023-02-11T08:04:27.614Z,13.43
2023-02-11T08:06:58.995Z,16.05
2023-02-11T08:09:26.071Z,16.25
2023-02-11T08:11:52.981Z,11.13
2023-02-11T08:14:20.678Z,21.15
2023-02-11T08:16:47.713Z,12.02
2023-02-11T08:19:16.538Z,8.98
2023-02-11T08:21:44.482Z,14.73
2023-02-11T08:24:11.804Z,15.25
2023-02-11T08:26:38.785Z,13.88
2023-02-11T08:29:11.727Z,11.55
2023-02-11T08:31:41.663Z,12.98
2023-02-11T08:34:10.110Z,26.25
2023-02-11T08:36:38.916Z,16.17
2023-02-11T08:39:18.610Z,13.52
2023-02-11T08:41:52.332Z,16.20
2023-02-11T08:44:20.955Z,9.23
2023-02-11T08:46:48.436Z,13.82
2023-02-11T08:49:16.528Z,13.52
2023-02-11T08:51:44.566Z,10.35
2023-02-11T08:54:12.408Z,9.82
2023-02-11T08:56:39.481Z,10.77
2023-02-11T08:59:07.664Z,11.38
2023-02-11T09:01:35.484Z,28.25
2023-02-11T09:04:03.005Z,17.33
2023-02-11T09:06:30.174Z,10.68
2023-02-11T09:08:59.237Z,11.98
2023-02-11T09:11:30.184Z,12.98
2023-02-11T09:13:57.358Z,12.02
2023-02-11T09:16:27.123Z,16.08
2023-02-11T09:18:56.479Z,11.25
2023-02-11T09:21:23.571Z,13.88
2023-02-11T09:23:50.737Z,12.23
2023-02-11T09:26:29.301Z,10.93
2023-02-11T09:28:56.749Z,14.95
2023-02-11T09:31:26.757Z,16.00
2023-02-11T09:34:00.006Z,14.48
2023-02-11T09:36:30.560Z,10.65
2023-02-11T09:38:59.875Z,11.52
2023-02-11T09:41:46.294Z,14.57
2023-02-11T09:44:39.936Z,18.58
2023-02-11T09:47:18.311Z,12.18
2023-02-11T09:49:50.189Z,17.58
2023-02-11T09:52:47.954Z,13.25
2023-02-11T09:55:20.724Z,10.80
2023-02-11T09:57:47.828Z,10.70
2023-02-11T10:00:33.299Z,12.48
2023-02-11T10:03:21.455Z,11.55
2023-02-11T10:06:01.026Z,18.33
2023-02-11T10:08:37.408Z,12.23
2023-02-11T10:11:30.596Z,12.70
2023-02-11T10:14:16.234Z,13.30
2023-02-11T10:17:14.134Z,11.52
2023-02-11T10:20:11.921Z,10.40
2023-02-11T10:22:55.863Z,14.38
2023-02-11T10:25:28.564Z,12.13
2023-02-11T10:27:59.896Z,11.68
2023-02-11T10:30:35.046Z,18.95
2023-02-11T10:33:17.684Z,13.77
2023-02-11T10:35:45.798Z,23.15
2023-02-11T10:38:13.236Z,18.80
2023-02-11T10:40:40.413Z,28.17
2023-02-11T10:43:14.015Z,13.50
2023-02-11T10:45:55.230Z,10.73
2023-02-11T10:48:41.031Z,11.60
2023-02-11T10:51:12.827Z,17.98
2023-02-11T10:53:41.824Z,12.48
2023-02-11T10:56:12.865Z,12.40
2023-02-11T10:59:05.625Z,11.60
2023-02-11T11:01:49.446Z,13.30
2023-02-11T11:04:34.305Z,11.52
2023-02-11T11:07:31.649Z,13.23
2023-02-11T11:10:24.236Z,13.43
2023-02-11T11:12:51.535Z,14.88
2023-02-11T11:15:22.514Z,14.95
2023-02-11T11:17:51.407Z,14.25
2023-02-11T11:20:24.074Z,17.15
2023-02-11T11:22:54.598Z,13.35
2023-02-11T11:25:26.042Z,13.13
2023-02-11T11:27:56.026Z,14.40
2023-02-11T11:30:27.698Z,11.05
2023-02-11T11:32:55.086Z,12.82
2023-02-11T11:35:28.060Z,12.60
2023-02-11T11:38:02.154Z,14.35
2023-02-11T11:40:34.077Z,16.45
2023-02-11T11:43:15.062Z,11.95
2023-02-11T11:46:00.032Z,18.55
2023-02-11T11:48:42.896Z,13.07
2023-02-11T11:51:13.104Z,13.95
2023-02-11T11:54:02.512Z,13.30
2023-02-11T11:56:34.119Z,14.15
2023-02-11T11:59:06.731Z,19.13
2023-02-11T12:02:17.752Z,12.90
2023-02-11T12:05:06.982Z,12.35
2023-02-11T12:07:45.869Z,25.90
2023-02-11T12:10:32.051Z,14.63
2023-02-11T12:13:08.035Z,13.38
2023-02-11T12:15:55.709Z,13.82
2023-02-11T12:18:38.204Z,15.25
2023-02-11T12:21:37.084Z,12.65
2023-02-11T12:24:49.668Z,13.20
2023-02-11T12:27:35.188Z,11.05
2023-02-11T12:30:23.998Z,15.95
2023-02-11T12:33:24.774Z,12.77
2023-02-11T12:36:15.243Z,10.90
2023-02-11T12:39:26.114Z,10.85
2023-02-11T12:42:40.119Z,13.15
2023-02-11T12:45:14.006Z,11.43
2023-02-11T12:48:11.472Z,24.60
2023-02-11T12:51:07.697Z,17.05
2023-02-11T12:53:53.904Z,14.70
2023-02-11T12:57:14.897Z,27.25
2023-02-11T12:59:52.228Z,12.73
2023-02-11T13:02:41.263Z,12.45
2023-02-11T13:05:33.848Z,11.93
2023-02-11T13:08:30.991Z,10.45
2023-02-11T13:11:21.909Z,26.42
2023-02-11T13:14:17.733Z,30.95
2023-02-11T13:16:47.958Z,17.90
2023-02-11T13:19:14.902Z,22.80
2023-02-11T13:21:44.701Z,13.07
2023-02-11T13:24:36.455Z,18.23
2023-02-11T13:27:37.111Z,15.07
2023-02-11T13:30:28.042Z,11.40
2023-02-11T13:32:54.857Z,16.15
2023-02-11T13:35:40.342Z,11.38
2023-02-11T13:38:24.163Z,16.67
2023-02-11T13:41:28.580Z,14.50
2023-02-11T13:44:20.649Z,11.00
2023-02-11T13:46:56.072Z,10.32
2023-02-11T13:49:32.106Z,18.50
2023-02-11T13:52:01.801Z,14.00
2023-02-11T13:54:33.609Z,14.75
2023-02-11T13:57:22.324Z,17.00
2023-02-11T13:59:53.277Z,11.85
2023-02-11T14:02:49.777Z,11.38
2023-02-11T14:05:41.102Z,12.75
2023-02-11T14:08:29.553Z,36.53
2023-02-11T14:11:08.572Z,8.25
2023-02-11T14:14:03.029Z,10.82
2023-02-11T14:16:37.908Z,29.83
2023-02-11T14:19:06.472Z,11.45
2023-02-11T14:21:38.143Z,16.88
2023-02-11T14:24:07.160Z,10.15
2023-02-11T14:26:43.107Z,11.75
2023-02-11T14:29:25.720Z,13.30
2023-02-11T14:32:38.181Z,11.57
2023-02-11T14:35:22.576Z,32.28
2023-02-11T14:38:21.379Z,11.45
2023-02-11T14:41:11.204Z,12.95
2023-02-11T14:43:48.722Z,8.30
2023-02-11T14:46:17.804Z,9.93
2023-02-11T14:48:50.516Z,11.75
2023-02-11T14:51:23.382Z,22.60
2023-02-11T14:53:57.999Z,12.88
2023-02-11T14:56:27.973Z,13.63
2023-02-11T14:58:55.635Z,27.70
2023-02-11T15:01:34.058Z,17.08
2023-02-11T15:04:03.457Z,23.00
2023-02-11T15:06:37.698Z,24.20
2023-02-11T15:09:13.425Z,20.25
2023-02-11T15:11:43.271Z,14.93
2023-02-11T15:14:16.687Z,18.10
2023-02-11T15:16:45.645Z,22.25
2023-02-11T15:19:29.000Z,34.05
2023-02-11T15:21:57.001Z,24.58
2023-02-11T15:24:27.201Z,20.23
2023-02-11T15:26:56.856Z,16.75
2023-02-11T15:29:29.290Z,19.30
2023-02-11T15:32:12.413Z,28.67
2023-02-11T15:34:39.470Z,90.65
2023-02-11T15:37:06.734Z,96.32
2023-02-11T15:39:38.043Z,29.98
2023-02-11T15:42:29.079Z,61.25
2023-02-11T15:45:14.348Z,45.25
2023-02-11T15:47:48.783Z,28.45
2023-02-11T15:50:37.152Z,42.15
2023-02-11T15:53:14.264Z,35.92
2023-02-11T15:55:42.143Z,95.28
2023-02-11T15:58:10.908Z,106.30
2023-02-11T16:00:46.856Z,64.55
2023-02-11T16:03:32.575Z,62.95
2023-02-11T16:06:41.613Z,101.00
2023-02-11T16:09:08.444Z,98.00
2023-02-11T16:11:53.839Z,77.90
2023-02-11T16:14:32.927Z,66.95
2023-02-11T16:17:04.950Z,77.72
2023-02-11T16:19:34.070Z,114.35
2023-02-11T16:22:10.296Z,96.80
2023-02-11T16:24:39.086Z,91.85
2023-02-11T16:27:30.661Z,126.38
2023-02-11T16:29:58.872Z,116.45
2023-02-11T16:32:28.715Z,175.40
2023-02-11T16:34:58.751Z,163.02
2023-02-11T16:37:26.117Z,149.32
2023-02-11T16:39:57.032Z,126.88
2023-02-11T16:42:24.580Z,117.75
2023-02-11T16:44:51.554Z,119.43
2023-02-11T16:47:31.180Z,92.72
2023-02-11T16:49:59.171Z,103.78
2023-02-11T16:52:26.555Z,102.15
2023-02-11T16:54:53.650Z,91.15
2023-02-11T16:57:23.366Z,90.22
2023-02-11T16:59:51.197Z,100.13
2023-02-11T17:02:26.079Z,103.68
2023-02-11T17:04:54.830Z,131.00
2023-02-11T17:07:22.189Z,112.68
2023-02-11T17:09:49.044Z,125.68
2023-02-11T17:12:15.920Z,160.15
2023-02-11T17:14:43.668Z,225.07
2023-02-11T17:17:11.345Z,398.00
2023-02-11T17:19:38.757Z,345.65
2023-02-11T17:22:06.271Z,258.30
2023-02-11T17:24:33.130Z,196.13
2023-02-11T17:27:00.006Z,181.45
2023-02-11T17:29:27.212Z,146.13
2023-02-11T17:31:54.509Z,123.07
2023-02-11T17:34:22.512Z,101.03
2023-02-11T17:36:50.064Z,48.60
2023-02-11T17:39:16.972Z,71.15
2023-02-11T17:41:43.785Z,62.00
2023-02-11T17:44:12.594Z,68.05
2023-02-11T17:46:39.776Z,82.82
2023-02-11T17:49:06.620Z,75.50
2023-02-11T17:51:36.101Z,92.28
2023-02-11T17:54:06.791Z,83.40
2023-02-11T17:56:35.411Z,88.57
2023-02-11T17:59:03.246Z,105.05
2023-02-11T18:01:31.834Z,142.88
2023-02-11T18:03:59.044Z,118.47
2023-02-11T18:06:26.315Z,71.57
2023-02-11T18:08:54.585Z,37.33
2023-02-11T18:11:25.232Z,59.45
2023-02-11T18:13:54.577Z,60.08
2023-02-11T18:16:22.444Z,63.65
2023-02-11T18:18:49.917Z,76.03
2023-02-11T18:21:19.913Z,97.03
2023-02-11T18:23:47.601Z,94.20
2023-02-11T18:26:15.920Z,83.28
2023-02-11T18:28:45.733Z,135.43
2023-02-11T18:31:14.275Z,126.32
2023-02-11T18:33:42.010Z,79.85
2023-02-11T18:36:13.879Z,76.35
2023-02-11T18:38:41.746Z,78.53
2023-02-11T18:41:08.677Z,78.95
2023-02-11T18:43:36.389Z,78.18
2023-02-11T18:46:09.167Z,69.15
2023-02-11T18:48:36.029Z,89.13
2023-02-11T18:51:02.931Z,80.63
2023-02-11T18:53:29.933Z,87.22
2023-02-11T18:55:56.751Z,74.05
2023-02-11T18:58:23.659Z,64.32
2023-02-11T19:00:50.777Z,64.18
2023-02-11T19:03:17.645Z,67.97
2023-02-11T19:05:46.881Z,72.32
2023-02-11T19:08:14.420Z,72.72
2023-02-11T19:10:43.210Z,86.40
2023-02-11T19:13:10.845Z,123.70
2023-02-11T19:15:45.522Z,151.40
2023-02-11T19:18:15.225Z,142.52
2023-02-11T19:20:43.706Z,84.53
2023-02-11T19:23:11.355Z,42.55
2023-02-11T19:25:45.586Z,43.08
2023-02-11T19:28:13.240Z,31.38
2023-02-11T19:30:40.441Z,27.10
2023-02-11T19:33:09.778Z,19.15
2023-02-11T19:35:37.033Z,21.88
2023-02-11T19:38:05.069Z,17.83
2023-02-11T19:40:32.501Z,22.77
2023-02-11T19:42:59.557Z,30.58
2023-02-11T19:45:27.090Z,27.05
2023-02-11T19:47:57.894Z,27.77
2023-02-11T19:50:25.475Z,27.27
2023-02-11T19:52:52.342Z,28.55
2023-02-11T19:55:19.282Z,35.83
2023-02-11T19:57:46.435Z,37.70
2023-02-11T20:00:13.772Z,38.88
2023-02-11T20:02:41.188Z,32.47
2023-02-11T20:05:09.086Z,32.78
2023-02-11T20:07:36.084Z,33.20
2023-02-11T20:10:03.395Z,31.67
2023-02-11T20:12:30.285Z,33.13
2023-02-11T20:14:57.180Z,33.33
2023-02-11T20:17:24.040Z,31.08
2023-02-11T20:19:51.616Z,23.75
2023-02-11T20:22:18.462Z,22.60
2023-02-11T20:24:45.416Z,23.92
2023-02-11T20:27:12.793Z,18.67
2023-02-11T20:29:40.007Z,24.35
2023-02-11T20:32:07.878Z,24.15
2023-02-11T20:34:34.839Z,27.70
2023-02-11T20:37:03.041Z,18.50
2023-02-11T20:39:30.210Z,26.55
2023-02-11T20:41:58.267Z,27.10
2023-02-11T20:44:25.121Z,28.90
2023-02-11T20:46:54.081Z,34.72
2023-02-11T20:49:24.107Z,25.92
2023-02-11T20:51:53.447Z,21.20
2023-02-11T20:54:21.190Z,33.30
2023-02-11T20:56:48.600Z,18.95
2023-02-11T20:59:16.765Z,17.00
2023-02-11T21:01:47.165Z,19.17
2023-02-11T21:04:20.137Z,23.90
2023-02-11T21:06:49.479Z,24.55
2023-02-11T21:09:21.950Z,23.27
2023-02-11T21:14:16.215Z,29.05
2023-02-11T21:16:42.994Z,26.95
2023-02-11T21:19:09.957Z,28.90
2023-02-11T21:21:37.932Z,28.48
2023-02-11T21:24:08.720Z,23.45
2023-02-11T21:26:35.859Z,21.88
2023-02-11T21:29:07.831Z,23.25
2023-02-11T21:31:36.415Z,26.42
2023-02-11T21:34:04.443Z,30.52
2023-02-11T21:36:31.534Z,28.00
2023-02-11T21:38:58.558Z,35.63
2023-02-11T21:41:27.043Z,38.08
2023-02-11T21:43:53.927Z,28.52
2023-02-11T21:46:21.630Z,28.38
2023-02-11T21:48:49.005Z,59.28
2023-02-11T21:51:24.341Z,78.55
2023-02-11T21:53:59.644Z,65.60
2023-02-11T21:56:29.780Z,56.78
2023-02-11T21:58:58.994Z,34.63
2023-02-11T22:01:32.654Z,20.60
2023-02-11T22:04:00.174Z,30.80
2023-02-11T22:06:33.211Z,46.15
2023-02-11T22:09:05.089Z,64.15
2023-02-11T22:11:32.191Z,77.10
2023-02-11T22:13:59.436Z,24.15
2023-02-11T22:16:27.330Z,16.92
2023-02-11T22:18:56.094Z,16.55
2023-02-11T22:21:23.176Z,15.52
2023-02-11T22:23:51.343Z,14.02
2023-02-11T22:26:21.565Z,18.45
2023-02-11T22:28:51.790Z,18.52
2023-02-11T22:31:30.907Z,20.30
2023-02-11T22:33:58.786Z,20.48
2023-02-11T22:36:28.985Z,23.55
2023-02-11T22:38:56.691Z,20.83
2023-02-11T22:41:23.682Z,20.83
2023-02-11T22:43:50.765Z,16.40
2023-02-11T22:46:19.222Z,16.15
2023-02-11T22:48:47.175Z,14.77
2023-02-11T22:51:17.171Z,13.63
2023-02-11T22:53:44.699Z,12.60
2023-02-11T22:56:15.658Z,12.00
2023-02-11T22:58:43.575Z,11.98
2023-02-11T23:01:11.252Z,13.27
2023-02-11T23:03:38.215Z,17.50
2023-02-11T23:06:05.692Z,17.73
2023-02-11T23:08:33.712Z,15.95
2023-02-11T23:11:11.945Z,12.95
2023-02-11T23:13:40.854Z,11.43
2023-02-11T23:16:10.544Z,11.65
2023-02-11T23:18:39.109Z,12.13
2023-02-11T23:21:11.404Z,11.43
2023-02-11T23:23:39.439Z,11.52
2023-02-11T23:26:11.130Z,12.65
2023-02-11T23:28:38.945Z,10.25
2023-02-11T23:31:19.513Z,10.95
2023-02-11T23:33:47.716Z,11.35
2023-02-11T23:36:15.445Z,12.52
2023-02-11T23:38:42.748Z,11.95
2023-02-11T23:41:10.699Z,10.45
2023-02-11T23:43:37.681Z,10.23
2023-02-11T23:46:05.821Z,11.52
2023-02-11T23:48:33.873Z,12.00
2023-02-11T23:51:00.737Z,12.05
2023-02-11T23:53:27.724Z,10.98
2023-02-11T23:55:55.039Z,15.15
2023-02-11T23:58:22.047Z,15.95
